sensor_id;sensor_type;location;lat;lon;timestamp;P1;durP1;ratioP1;P2;durP2;ratioP2
29362;SDS011;16349;53.672;10.014;2023-11-21T00:00:57;21.17;;;12.77;;
29362;SDS011;16349;53.672;10.014;2023-11-21T00:03:25;20.77;;;11.30;;
29362;SDS011;16349;53.672;10.014;2023-11-21T00:05:53;23.87;;;13.70;;
29362;SDS011;16349;53.672;10.014;2023-11-21T00:08:20;20.43;;;11.90;;
29362;SDS011;16349;53.672;10.014;2023-11-21T00:10:46;22.87;;;13.10;;
29362;SDS011;16349;53.672;10.014;2023-11-21T00:13:14;19.17;;;12.80;;
29362;SDS011;16349;53.672;10.014;2023-11-21T00:15:40;18.33;;;12.83;;
29362;SDS011;16349;53.672;10.014;2023-11-21T00:18:07;21.17;;;12.53;;
29362;SDS011;16349;53.672;10.014;2023-11-21T00:20:36;24.43;;;12.97;;
29362;SDS011;16349;53.672;10.014;2023-11-21T00:23:03;19.07;;;12.40;;
29362;SDS011;16349;53.672;10.014;2023-11-21T00:25:30;23.43;;;12.87;;
29362;SDS011;16349;53.672;10.014;2023-11-21T00:27:57;22.70;;;13.13;;
29362;SDS011;16349;53.672;10.014;2023-11-21T00:30:24;19.30;;;12.27;;
29362;SDS011;16349;53.672;10.014;2023-11-21T00:32:51;16.90;;;11.30;;
29362;SDS011;16349;53.672;10.014;2023-11-21T00:35:18;18.43;;;13.13;;
29362;SDS011;16349;53.672;10.014;2023-11-21T00:37:46;18.83;;;12.43;;
29362;SDS011;16349;53.672;10.014;2023-11-21T00:40:15;21.60;;;12.60;;
29362;SDS011;16349;53.672;10.014;2023-11-21T00:42:44;21.87;;;12.77;;
29362;SDS011;16349;53.672;10.014;2023-11-21T00:45:11;18.77;;;12.20;;
29362;SDS011;16349;53.672;10.014;2023-11-21T00:47:38;21.73;;;12.03;;
29362;SDS011;16349;53.672;10.014;2023-11-21T00:50:06;18.63;;;12.60;;
29362;SDS011;16349;53.672;10.014;2023-11-21T00:52:33;23.10;;;13.20;;
29362;SDS011;16349;53.672;10.014;2023-11-21T00:55:02;20.57;;;12.57;;
29362;SDS011;16349;53.672;10.014;2023-11-21T00:57:30;20.67;;;13.50;;
29362;SDS011;16349;53.672;10.014;2023-11-21T00:59:56;19.60;;;12.93;;
29362;SDS011;16349;53.672;10.014;2023-11-21T01:02:23;20.60;;;12.73;;
29362;SDS011;16349;53.672;10.014;2023-11-21T01:04:50;23.20;;;11.30;;
29362;SDS011;16349;53.672;10.014;2023-11-21T01:07:17;18.40;;;12.10;;
29362;SDS011;16349;53.672;10.014;2023-11-21T01:09:45;19.17;;;11.03;;
29362;SDS011;16349;53.672;10.014;2023-11-21T01:12:13;15.97;;;11.40;;
29362;SDS011;16349;53.672;10.014;2023-11-21T01:14:42;12.97;;;9.13;;
29362;SDS011;16349;53.672;10.014;2023-11-21T01:17:11;17.30;;;10.37;;
29362;SDS011;16349;53.672;10.014;2023-11-21T01:19:37;14.93;;;10.43;;
29362;SDS011;16349;53.672;10.014;2023-11-21T01:22:04;12.83;;;10.40;;
29362;SDS011;16349;53.672;10.014;2023-11-21T01:24:31;15.70;;;10.57;;
29362;SDS011;16349;53.672;10.014;2023-11-21T01:26:57;15.97;;;11.37;;
29362;SDS011;16349;53.672;10.014;2023-11-21T01:29:25;20.87;;;11.90;;
29362;SDS011;16349;53.672;10.014;2023-11-21T01:31:53;15.93;;;10.50;;
29362;SDS011;16349;53.672;10.014;2023-11-21T01:34:19;20.07;;;11.40;;
29362;SDS011;16349;53.672;10.014;2023-11-21T01:36:46;15.67;;;10.30;;
29362;SDS011;16349;53.672;10.014;2023-11-21T01:39:13;15.03;;;10.00;;
29362;SDS011;16349;53.672;10.014;2023-11-21T01:41:41;16.27;;;11.27;;
29362;SDS011;16349;53.672;10.014;2023-11-21T01:44:09;17.10;;;11.13;;
29362;SDS011;16349;53.672;10.014;2023-11-21T01:46:37;17.90;;;11.13;;
29362;SDS011;16349;53.672;10.014;2023-11-21T01:49:05;14.23;;;10.00;;
29362;SDS011;16349;53.672;10.014;2023-11-21T01:51:32;13.07;;;9.90;;
29362;SDS011;16349;53.672;10.014;2023-11-21T01:54:01;13.43;;;9.97;;
29362;SDS011;16349;53.672;10.014;2023-11-21T01:56:30;16.03;;;9.77;;
29362;SDS011;16349;53.672;10.014;2023-11-21T01:58:57;14.20;;;9.03;;
29362;SDS011;16349;53.672;10.014;2023-11-21T02:01:24;15.67;;;9.60;;
29362;SDS011;16349;53.672;10.014;2023-11-21T02:03:53;15.33;;;9.07;;
29362;SDS011;16349;53.672;10.014;2023-11-21T02:06:20;12.17;;;8.40;;
29362;SDS011;16349;53.672;10.014;2023-11-21T02:08:49;10.93;;;8.03;;
29362;SDS011;16349;53.672;10.014;2023-11-21T02:11:16;13.60;;;7.57;;
29362;SDS011;16349;53.672;10.014;2023-11-21T02:13:46;12.40;;;7.83;;
29362;SDS011;16349;53.672;10.014;2023-11-21T02:16:15;12.97;;;6.67;;
29362;SDS011;16349;53.672;10.014;2023-11-21T02:18:41;8.27;;;6.53;;
29362;SDS011;16349;53.672;10.014;2023-11-21T02:21:10;9.87;;;7.37;;
29362;SDS011;16349;53.672;10.014;2023-11-21T02:23:39;8.90;;;6.73;;
29362;SDS011;16349;53.672;10.014;2023-11-21T02:26:09;10.17;;;6.33;;
29362;SDS011;16349;53.672;10.014;2023-11-21T02:28:36;8.27;;;5.93;;
29362;SDS011;16349;53.672;10.014;2023-11-21T02:31:04;6.90;;;6.20;;
29362;SDS011;16349;53.672;10.014;2023-11-21T02:33:32;8.20;;;6.20;;
29362;SDS011;16349;53.672;10.014;2023-11-21T02:35:59;7.47;;;5.77;;
29362;SDS011;16349;53.672;10.014;2023-11-21T02:38:26;10.90;;;6.13;;
29362;SDS011;16349;53.672;10.014;2023-11-21T02:40:55;7.73;;;5.13;;
29362;SDS011;16349;53.672;10.014;2023-11-21T02:43:23;6.33;;;5.00;;
29362;SDS011;16349;53.672;10.014;2023-11-21T02:45:50;8.07;;;5.57;;
29362;SDS011;16349;53.672;10.014;2023-11-21T02:48:18;6.20;;;5.60;;
29362;SDS011;16349;53.672;10.014;2023-11-21T02:50:45;9.07;;;5.00;;
29362;SDS011;16349;53.672;10.014;2023-11-21T02:53:13;9.53;;;5.70;;
29362;SDS011;16349;53.672;10.014;2023-11-21T02:55:41;8.87;;;5.60;;
29362;SDS011;16349;53.672;10.014;2023-11-21T02:58:09;8.20;;;6.20;;
29362;SDS011;16349;53.672;10.014;2023-11-21T03:00:36;6.77;;;6.00;;
29362;SDS011;16349;53.672;10.014;2023-11-21T03:03:04;9.13;;;6.13;;
29362;SDS011;16349;53.672;10.014;2023-11-21T03:05:31;7.43;;;5.60;;
29362;SDS011;16349;53.672;10.014;2023-11-21T03:08:00;8.53;;;6.33;;
29362;SDS011;16349;53.672;10.014;2023-11-21T03:10:27;6.97;;;6.23;;
29362;SDS011;16349;53.672;10.014;2023-11-21T03:12:54;8.00;;;6.30;;
29362;SDS011;16349;53.672;10.014;2023-11-21T03:15:23;10.80;;;6.67;;
29362;SDS011;16349;53.672;10.014;2023-11-21T03:17:50;9.23;;;6.20;;
29362;SDS011;16349;53.672;10.014;2023-11-21T03:20:17;7.77;;;6.50;;
29362;SDS011;16349;53.672;10.014;2023-11-21T03:22:44;9.37;;;6.77;;
29362;SDS011;16349;53.672;10.014;2023-11-21T03:25:11;8.70;;;6.37;;
29362;SDS011;16349;53.672;10.014;2023-11-21T03:27:38;8.60;;;6.23;;
29362;SDS011;16349;53.672;10.014;2023-11-21T03:30:07;7.67;;;6.90;;
29362;SDS011;16349;53.672;10.014;2023-11-21T03:32:37;8.23;;;7.07;;
29362;SDS011;16349;53.672;10.014;2023-11-21T03:35:04;10.70;;;6.97;;
29362;SDS011;16349;53.672;10.014;2023-11-21T03:37:31;10.40;;;6.77;;
29362;SDS011;16349;53.672;10.014;2023-11-21T03:39:58;8.60;;;7.10;;
29362;SDS011;16349;53.672;10.014;2023-11-21T03:42:25;12.43;;;7.03;;
29362;SDS011;16349;53.672;10.014;2023-11-21T03:44:52;10.73;;;7.17;;
29362;SDS011;16349;53.672;10.014;2023-11-21T03:47:19;11.87;;;7.23;;
29362;SDS011;16349;53.672;10.014;2023-11-21T03:49:48;9.57;;;7.03;;
29362;SDS011;16349;53.672;10.014;2023-11-21T03:52:15;9.53;;;7.23;;
29362;SDS011;16349;53.672;10.014;2023-11-21T03:54:42;9.90;;;6.83;;
29362;SDS011;16349;53.672;10.014;2023-11-21T03:57:09;12.93;;;7.67;;
29362;SDS011;16349;53.672;10.014;2023-11-21T03:59:36;11.40;;;7.27;;
29362;SDS011;16349;53.672;10.014;2023-11-21T04:02:05;11.60;;;7.07;;
29362;SDS011;16349;53.672;10.014;2023-11-21T04:04:32;9.73;;;7.20;;
29362;SDS011;16349;53.672;10.014;2023-11-21T04:07:00;9.80;;;7.33;;
29362;SDS011;16349;53.672;10.014;2023-11-21T04:09:28;11.43;;;7.93;;
29362;SDS011;16349;53.672;10.014;2023-11-21T04:11:54;9.23;;;7.13;;
29362;SDS011;16349;53.672;10.014;2023-11-21T04:14:21;9.23;;;6.77;;
29362;SDS011;16349;53.672;10.014;2023-11-21T04:16:48;8.47;;;7.07;;
29362;SDS011;16349;53.672;10.014;2023-11-21T04:19:15;8.20;;;6.70;;
29362;SDS011;16349;53.672;10.014;2023-11-21T04:21:42;9.93;;;7.53;;
29362;SDS011;16349;53.672;10.014;2023-11-21T04:24:10;10.50;;;7.10;;
29362;SDS011;16349;53.672;10.014;2023-11-21T04:26:37;8.63;;;6.80;;
29362;SDS011;16349;53.672;10.014;2023-11-21T04:29:04;9.30;;;7.17;;
29362;SDS011;16349;53.672;10.014;2023-11-21T04:31:31;7.40;;;6.13;;
29362;SDS011;16349;53.672;10.014;2023-11-21T04:33:58;9.13;;;7.07;;
29362;SDS011;16349;53.672;10.014;2023-11-21T04:36:24;12.00;;;6.70;;
29362;SDS011;16349;53.672;10.014;2023-11-21T04:38:51;8.80;;;6.83;;
29362;SDS011;16349;53.672;10.014;2023-11-21T04:41:19;8.50;;;6.50;;
29362;SDS011;16349;53.672;10.014;2023-11-21T04:43:46;7.40;;;6.57;;
29362;SDS011;16349;53.672;10.014;2023-11-21T04:46:14;8.37;;;6.97;;
29362;SDS011;16349;53.672;10.014;2023-11-21T04:48:41;7.37;;;5.73;;
29362;SDS011;16349;53.672;10.014;2023-11-21T04:51:08;7.87;;;6.10;;
29362;SDS011;16349;53.672;10.014;2023-11-21T04:53:36;7.73;;;6.80;;
29362;SDS011;16349;53.672;10.014;2023-11-21T04:56:04;8.70;;;6.57;;
29362;SDS011;16349;53.672;10.014;2023-11-21T04:58:33;9.67;;;6.73;;
29362;SDS011;16349;53.672;10.014;2023-11-21T05:01:00;10.20;;;6.60;;
29362;SDS011;16349;53.672;10.014;2023-11-21T05:03:28;8.47;;;6.30;;
29362;SDS011;16349;53.672;10.014;2023-11-21T05:05:55;7.60;;;6.00;;
29362;SDS011;16349;53.672;10.014;2023-11-21T05:08:23;9.27;;;6.50;;
29362;SDS011;16349;53.672;10.014;2023-11-21T05:10:50;7.80;;;5.93;;
29362;SDS011;16349;53.672;10.014;2023-11-21T05:13:18;9.70;;;7.20;;
29362;SDS011;16349;53.672;10.014;2023-11-21T05:15:47;8.10;;;7.30;;
29362;SDS011;16349;53.672;10.014;2023-11-21T05:18:13;9.87;;;6.93;;
29362;SDS011;16349;53.672;10.014;2023-11-21T05:20:40;9.10;;;5.90;;
29362;SDS011;16349;53.672;10.014;2023-11-21T05:23:07;9.03;;;6.83;;
29362;SDS011;16349;53.672;10.014;2023-11-21T05:25:34;7.83;;;6.33;;
29362;SDS011;16349;53.672;10.014;2023-11-21T05:28:01;9.57;;;6.23;;
29362;SDS011;16349;53.672;10.014;2023-11-21T05:30:29;8.00;;;5.97;;
29362;SDS011;16349;53.672;10.014;2023-11-21T05:32:57;9.57;;;6.67;;
29362;SDS011;16349;53.672;10.014;2023-11-21T05:35:24;7.77;;;6.80;;
29362;SDS011;16349;53.672;10.014;2023-11-21T05:37:51;9.83;;;6.50;;
29362;SDS011;16349;53.672;10.014;2023-11-21T05:40:18;8.07;;;6.40;;
29362;SDS011;16349;53.672;10.014;2023-11-21T05:42:47;9.17;;;6.90;;
29362;SDS011;16349;53.672;10.014;2023-11-21T05:45:14;9.40;;;6.40;;
29362;SDS011;16349;53.672;10.014;2023-11-21T05:47:42;9.17;;;6.87;;
29362;SDS011;16349;53.672;10.014;2023-11-21T05:50:13;11.43;;;6.30;;
29362;SDS011;16349;53.672;10.014;2023-11-21T05:52:41;8.10;;;5.87;;
29362;SDS011;16349;53.672;10.014;2023-11-21T05:55:08;10.03;;;6.63;;
29362;SDS011;16349;53.672;10.014;2023-11-21T05:57:36;9.40;;;6.67;;
29362;SDS011;16349;53.672;10.014;2023-11-21T06:00:04;8.60;;;6.10;;
29362;SDS011;16349;53.672;10.014;2023-11-21T06:02:36;10.17;;;6.77;;
29362;SDS011;16349;53.672;10.014;2023-11-21T06:05:04;8.40;;;6.23;;
29362;SDS011;16349;53.672;10.014;2023-11-21T06:07:33;7.90;;;6.17;;
29362;SDS011;16349;53.672;10.014;2023-11-21T06:10:00;6.97;;;6.07;;
29362;SDS011;16349;53.672;10.014;2023-11-21T06:12:31;8.03;;;6.73;;
29362;SDS011;16349;53.672;10.014;2023-11-21T06:15:00;7.20;;;6.27;;
29362;SDS011;16349;53.672;10.014;2023-11-21T06:17:29;9.23;;;7.07;;
29362;SDS011;16349;53.672;10.014;2023-11-21T06:19:56;8.47;;;6.60;;
29362;SDS011;16349;53.672;10.014;2023-11-21T06:22:23;7.93;;;6.53;;
29362;SDS011;16349;53.672;10.014;2023-11-21T06:24:51;7.17;;;5.70;;
29362;SDS011;16349;53.672;10.014;2023-11-21T06:27:17;8.07;;;6.17;;
29362;SDS011;16349;53.672;10.014;2023-11-21T06:29:44;7.57;;;6.50;;
29362;SDS011;16349;53.672;10.014;2023-11-21T06:32:12;7.93;;;6.23;;
29362;SDS011;16349;53.672;10.014;2023-11-21T06:34:41;8.30;;;6.40;;
29362;SDS011;16349;53.672;10.014;2023-11-21T06:37:08;10.33;;;6.50;;
29362;SDS011;16349;53.672;10.014;2023-11-21T06:39:36;7.10;;;6.30;;
29362;SDS011;16349;53.672;10.014;2023-11-21T06:42:05;8.83;;;6.73;;
29362;SDS011;16349;53.672;10.014;2023-11-21T06:44:32;8.20;;;6.10;;
29362;SDS011;16349;53.672;10.014;2023-11-21T06:47:00;10.90;;;6.80;;
29362;SDS011;16349;53.672;10.014;2023-11-21T06:49:27;8.07;;;6.27;;
29362;SDS011;16349;53.672;10.014;2023-11-21T06:51:54;8.63;;;6.60;;
29362;SDS011;16349;53.672;10.014;2023-11-21T06:54:21;8.33;;;6.40;;
29362;SDS011;16349;53.672;10.014;2023-11-21T06:56:48;8.23;;;6.40;;
29362;SDS011;16349;53.672;10.014;2023-11-21T06:59:16;8.03;;;7.00;;
29362;SDS011;16349;53.672;10.014;2023-11-21T07:01:43;10.60;;;6.50;;
29362;SDS011;16349;53.672;10.014;2023-11-21T07:04:10;7.10;;;5.83;;
29362;SDS011;16349;53.672;10.014;2023-11-21T07:06:37;6.87;;;5.83;;
29362;SDS011;16349;53.672;10.014;2023-11-21T07:09:03;8.10;;;6.03;;
29362;SDS011;16349;53.672;10.014;2023-11-21T07:11:30;7.93;;;6.07;;
29362;SDS011;16349;53.672;10.014;2023-11-21T07:13:57;9.23;;;5.63;;
29362;SDS011;16349;53.672;10.014;2023-11-21T07:16:26;7.77;;;6.57;;
29362;SDS011;16349;53.672;10.014;2023-11-21T07:18:52;6.70;;;5.97;;
29362;SDS011;16349;53.672;10.014;2023-11-21T07:21:20;9.47;;;5.93;;
29362;SDS011;16349;53.672;10.014;2023-11-21T07:23:47;8.33;;;5.63;;
29362;SDS011;16349;53.672;10.014;2023-11-21T07:26:16;8.77;;;6.23;;
29362;SDS011;16349;53.672;10.014;2023-11-21T07:28:42;6.10;;;5.50;;
29362;SDS011;16349;53.672;10.014;2023-11-21T07:31:09;6.57;;;5.60;;
29362;SDS011;16349;53.672;10.014;2023-11-21T07:33:42;7.67;;;5.53;;
29362;SDS011;16349;53.672;10.014;2023-11-21T07:36:09;6.20;;;5.53;;
29362;SDS011;16349;53.672;10.014;2023-11-21T07:38:36;6.50;;;5.80;;
29362;SDS011;16349;53.672;10.014;2023-11-21T07:41:04;6.07;;;5.47;;
29362;SDS011;16349;53.672;10.014;2023-11-21T07:43:33;10.10;;;6.43;;
29362;SDS011;16349;53.672;10.014;2023-11-21T07:46:01;8.87;;;5.57;;
29362;SDS011;16349;53.672;10.014;2023-11-21T07:48:29;13.20;;;6.77;;
29362;SDS011;16349;53.672;10.014;2023-11-21T07:50:58;8.00;;;6.93;;
29362;SDS011;16349;53.672;10.014;2023-11-21T07:53:25;9.77;;;5.83;;
29362;SDS011;16349;53.672;10.014;2023-11-21T07:55:55;8.40;;;5.93;;
29362;SDS011;16349;53.672;10.014;2023-11-21T07:58:22;7.53;;;6.37;;
29362;SDS011;16349;53.672;10.014;2023-11-21T08:00:49;9.30;;;6.77;;
29362;SDS011;16349;53.672;10.014;2023-11-21T08:03:17;8.67;;;6.53;;
29362;SDS011;16349;53.672;10.014;2023-11-21T08:05:44;6.67;;;5.97;;
29362;SDS011;16349;53.672;10.014;2023-11-21T08:08:12;6.33;;;5.60;;
29362;SDS011;16349;53.672;10.014;2023-11-21T08:10:40;9.10;;;6.20;;
29362;SDS011;16349;53.672;10.014;2023-11-21T08:13:07;7.07;;;5.77;;
29362;SDS011;16349;53.672;10.014;2023-11-21T08:15:40;7.27;;;5.50;;
29362;SDS011;16349;53.672;10.014;2023-11-21T08:18:23;9.70;;;5.53;;
29362;SDS011;16349;53.672;10.014;2023-11-21T08:20:50;7.13;;;5.73;;
29362;SDS011;16349;53.672;10.014;2023-11-21T08:23:19;6.57;;;5.10;;
29362;SDS011;16349;53.672;10.014;2023-11-21T08:25:46;7.40;;;5.63;;
29362;SDS011;16349;53.672;10.014;2023-11-21T08:28:13;7.60;;;5.37;;
29362;SDS011;16349;53.672;10.014;2023-11-21T08:30:41;6.23;;;4.80;;
29362;SDS011;16349;53.672;10.014;2023-11-21T08:33:09;6.93;;;5.37;;
29362;SDS011;16349;53.672;10.014;2023-11-21T08:35:37;7.77;;;5.37;;
29362;SDS011;16349;53.672;10.014;2023-11-21T08:38:04;9.03;;;5.57;;
29362;SDS011;16349;53.672;10.014;2023-11-21T08:40:32;7.43;;;4.93;;
29362;SDS011;16349;53.672;10.014;2023-11-21T08:43:01;5.77;;;5.00;;
29362;SDS011;16349;53.672;10.014;2023-11-21T08:45:29;4.73;;;3.80;;
29362;SDS011;16349;53.672;10.014;2023-11-21T08:47:59;3.30;;;2.97;;
29362;SDS011;16349;53.672;10.014;2023-11-21T08:50:26;2.90;;;2.70;;
29362;SDS011;16349;53.672;10.014;2023-11-21T08:52:53;3.97;;;2.80;;
29362;SDS011;16349;53.672;10.014;2023-11-21T08:55:20;4.20;;;2.63;;
29362;SDS011;16349;53.672;10.014;2023-11-21T08:57:49;3.70;;;2.80;;
29362;SDS011;16349;53.672;10.014;2023-11-21T09:00:16;2.60;;;2.40;;
29362;SDS011;16349;53.672;10.014;2023-11-21T09:02:44;2.57;;;2.37;;
29362;SDS011;16349;53.672;10.014;2023-11-21T09:05:12;2.40;;;2.20;;
29362;SDS011;16349;53.672;10.014;2023-11-21T09:07:40;2.60;;;2.20;;
29362;SDS011;16349;53.672;10.014;2023-11-21T09:10:08;3.03;;;2.33;;
29362;SDS011;16349;53.672;10.014;2023-11-21T09:12:36;3.97;;;2.23;;
29362;SDS011;16349;53.672;10.014;2023-11-21T09:15:06;3.70;;;2.90;;
29362;SDS011;16349;53.672;10.014;2023-11-21T09:17:35;5.73;;;2.23;;
29362;SDS011;16349;53.672;10.014;2023-11-21T09:20:02;2.77;;;2.57;;
29362;SDS011;16349;53.672;10.014;2023-11-21T09:22:30;3.13;;;2.43;;
29362;SDS011;16349;53.672;10.014;2023-11-21T09:24:57;4.77;;;2.50;;
29362;SDS011;16349;53.672;10.014;2023-11-21T09:27:26;5.00;;;2.70;;
29362;SDS011;16349;53.672;10.014;2023-11-21T09:29:54;2.67;;;2.47;;
29362;SDS011;16349;53.672;10.014;2023-11-21T09:32:22;4.33;;;2.90;;
29362;SDS011;16349;53.672;10.014;2023-11-21T09:34:49;2.93;;;2.70;;
29362;SDS011;16349;53.672;10.014;2023-11-21T09:37:17;4.27;;;2.80;;
29362;SDS011;16349;53.672;10.014;2023-11-21T09:39:45;4.07;;;3.27;;
29362;SDS011;16349;53.672;10.014;2023-11-21T09:42:14;4.77;;;3.43;;
29362;SDS011;16349;53.672;10.014;2023-11-21T09:44:48;3.17;;;2.97;;
29362;SDS011;16349;53.672;10.014;2023-11-21T09:47:22;3.70;;;3.40;;
29362;SDS011;16349;53.672;10.014;2023-11-21T09:49:50;4.30;;;3.00;;
29362;SDS011;16349;53.672;10.014;2023-11-21T09:52:22;4.67;;;3.40;;
29362;SDS011;16349;53.672;10.014;2023-11-21T09:54:51;3.80;;;2.73;;
29362;SDS011;16349;53.672;10.014;2023-11-21T09:57:20;2.73;;;2.53;;
29362;SDS011;16349;53.672;10.014;2023-11-21T09:59:49;3.53;;;2.47;;
29362;SDS011;16349;53.672;10.014;2023-11-21T10:02:23;5.10;;;3.00;;
29362;SDS011;16349;53.672;10.014;2023-11-21T10:04:56;4.77;;;2.70;;
29362;SDS011;16349;53.672;10.014;2023-11-21T10:07:26;2.30;;;2.10;;
29362;SDS011;16349;53.672;10.014;2023-11-21T10:09:58;2.50;;;2.27;;
29362;SDS011;16349;53.672;10.014;2023-11-21T10:12:26;3.87;;;2.27;;
29362;SDS011;16349;53.672;10.014;2023-11-21T10:14:57;2.80;;;2.17;;
29362;SDS011;16349;53.672;10.014;2023-11-21T10:17:27;3.33;;;2.33;;
29362;SDS011;16349;53.672;10.014;2023-11-21T10:19:56;3.77;;;2.53;;
29362;SDS011;16349;53.672;10.014;2023-11-21T10:22:27;2.10;;;2.00;;
29362;SDS011;16349;53.672;10.014;2023-11-21T10:24:54;2.83;;;2.27;;
29362;SDS011;16349;53.672;10.014;2023-11-21T10:27:22;4.00;;;2.13;;
29362;SDS011;16349;53.672;10.014;2023-11-21T10:29:51;3.47;;;2.33;;
29362;SDS011;16349;53.672;10.014;2023-11-21T10:32:18;3.57;;;2.20;;
29362;SDS011;16349;53.672;10.014;2023-11-21T10:34:56;2.03;;;1.70;;
29362;SDS011;16349;53.672;10.014;2023-11-21T10:37:25;2.40;;;1.80;;
29362;SDS011;16349;53.672;10.014;2023-11-21T10:39:56;2.67;;;2.17;;
29362;SDS011;16349;53.672;10.014;2023-11-21T10:42:26;2.00;;;1.90;;
29362;SDS011;16349;53.672;10.014;2023-11-21T10:44:54;2.23;;;2.00;;
29362;SDS011;16349;53.672;10.014;2023-11-21T10:47:22;2.43;;;2.23;;
29362;SDS011;16349;53.672;10.014;2023-11-21T10:49:49;2.27;;;2.17;;
29362;SDS011;16349;53.672;10.014;2023-11-21T10:52:19;3.30;;;2.33;;
29362;SDS011;16349;53.672;10.014;2023-11-21T10:54:47;2.70;;;2.20;;
29362;SDS011;16349;53.672;10.014;2023-11-21T10:57:16;2.60;;;2.40;;
29362;SDS011;16349;53.672;10.014;2023-11-21T10:59:46;2.70;;;2.50;;
29362;SDS011;16349;53.672;10.014;2023-11-21T11:02:19;4.00;;;2.63;;
29362;SDS011;16349;53.672;10.014;2023-11-21T11:04:51;3.43;;;2.73;;
29362;SDS011;16349;53.672;10.014;2023-11-21T11:07:20;2.40;;;2.03;;
29362;SDS011;16349;53.672;10.014;2023-11-21T11:09:48;2.30;;;2.10;;
29362;SDS011;16349;53.672;10.014;2023-11-21T11:12:15;2.60;;;2.40;;
29362;SDS011;16349;53.672;10.014;2023-11-21T11:14:44;2.33;;;2.13;;
29362;SDS011;16349;53.672;10.014;2023-11-21T11:17:11;2.43;;;2.23;;
29362;SDS011;16349;53.672;10.014;2023-11-21T11:19:39;2.43;;;2.23;;
29362;SDS011;16349;53.672;10.014;2023-11-21T11:22:09;3.17;;;2.53;;
29362;SDS011;16349;53.672;10.014;2023-11-21T11:24:52;2.60;;;2.40;;
29362;SDS011;16349;53.672;10.014;2023-11-21T11:27:40;3.60;;;3.30;;
29362;SDS011;16349;53.672;10.014;2023-11-21T11:30:16;2.33;;;2.13;;
29362;SDS011;16349;53.672;10.014;2023-11-21T11:33:04;3.10;;;2.60;;
29362;SDS011;16349;53.672;10.014;2023-11-21T11:35:38;4.33;;;3.20;;
29362;SDS011;16349;53.672;10.014;2023-11-21T11:38:12;2.53;;;2.33;;
29362;SDS011;16349;53.672;10.014;2023-11-21T11:40:41;3.03;;;2.73;;
29362;SDS011;16349;53.672;10.014;2023-11-21T11:43:12;2.37;;;2.17;;
29362;SDS011;16349;53.672;10.014;2023-11-21T11:45:39;4.80;;;2.40;;
29362;SDS011;16349;53.672;10.014;2023-11-21T11:48:08;2.73;;;2.53;;
29362;SDS011;16349;53.672;10.014;2023-11-21T11:50:41;3.03;;;2.13;;
29362;SDS011;16349;53.672;10.014;2023-11-21T11:53:28;3.87;;;2.50;;
29362;SDS011;16349;53.672;10.014;2023-11-21T11:58:53;2.73;;;2.43;;
29362;SDS011;16349;53.672;10.014;2023-11-21T12:01:21;3.60;;;2.77;;
29362;SDS011;16349;53.672;10.014;2023-11-21T12:06:56;3.03;;;2.00;;
29362;SDS011;16349;53.672;10.014;2023-11-21T12:09:27;3.80;;;2.20;;
29362;SDS011;16349;53.672;10.014;2023-11-21T12:11:57;3.47;;;2.10;;
29362;SDS011;16349;53.672;10.014;2023-11-21T12:14:25;3.73;;;2.63;;
29362;SDS011;16349;53.672;10.014;2023-11-21T12:16:52;3.30;;;2.20;;
29362;SDS011;16349;53.672;10.014;2023-11-21T12:19:20;2.33;;;2.13;;
29362;SDS011;16349;53.672;10.014;2023-11-21T12:21:48;2.97;;;2.57;;
29362;SDS011;16349;53.672;10.014;2023-11-21T12:24:15;2.37;;;2.17;;
29362;SDS011;16349;53.672;10.014;2023-11-21T12:26:42;3.93;;;2.30;;
29362;SDS011;16349;53.672;10.014;2023-11-21T12:29:11;3.07;;;2.77;;
29362;SDS011;16349;53.672;10.014;2023-11-21T12:31:38;2.60;;;2.40;;
29362;SDS011;16349;53.672;10.014;2023-11-21T12:34:06;3.20;;;2.87;;
29362;SDS011;16349;53.672;10.014;2023-11-21T12:36:36;2.83;;;2.47;;
29362;SDS011;16349;53.672;10.014;2023-11-21T12:39:04;2.83;;;2.50;;
29362;SDS011;16349;53.672;10.014;2023-11-21T12:41:31;4.53;;;2.40;;
29362;SDS011;16349;53.672;10.014;2023-11-21T12:43:58;2.73;;;2.53;;
29362;SDS011;16349;53.672;10.014;2023-11-21T12:46:26;2.33;;;2.13;;
29362;SDS011;16349;53.672;10.014;2023-11-21T12:48:55;2.30;;;2.07;;
29362;SDS011;16349;53.672;10.014;2023-11-21T12:51:22;2.33;;;2.10;;
29362;SDS011;16349;53.672;10.014;2023-11-21T12:53:50;2.50;;;2.13;;
29362;SDS011;16349;53.672;10.014;2023-11-21T12:56:18;2.50;;;2.27;;
29362;SDS011;16349;53.672;10.014;2023-11-21T12:58:48;4.03;;;2.60;;
29362;SDS011;16349;53.672;10.014;2023-11-21T13:01:16;3.23;;;2.53;;
29362;SDS011;16349;53.672;10.014;2023-11-21T13:03:50;3.23;;;2.33;;
29362;SDS011;16349;53.672;10.014;2023-11-21T13:06:17;3.57;;;2.40;;
29362;SDS011;16349;53.672;10.014;2023-11-21T13:08:45;2.47;;;2.27;;
29362;SDS011;16349;53.672;10.014;2023-11-21T13:11:12;3.60;;;2.40;;
29362;SDS011;16349;53.672;10.014;2023-11-21T13:13:40;2.30;;;2.10;;
29362;SDS011;16349;53.672;10.014;2023-11-21T13:16:09;3.27;;;2.17;;
29362;SDS011;16349;53.672;10.014;2023-11-21T13:18:36;2.80;;;2.60;;
29362;SDS011;16349;53.672;10.014;2023-11-21T13:21:05;2.93;;;2.60;;
29362;SDS011;16349;53.672;10.014;2023-11-21T13:23:36;3.83;;;3.07;;
29362;SDS011;16349;53.672;10.014;2023-11-21T13:26:03;2.60;;;2.40;;
29362;SDS011;16349;53.672;10.014;2023-11-21T13:28:31;3.53;;;2.70;;
29362;SDS011;16349;53.672;10.014;2023-11-21T13:30:59;3.00;;;2.60;;
29362;SDS011;16349;53.672;10.014;2023-11-21T13:33:34;4.57;;;2.50;;
29362;SDS011;16349;53.672;10.014;2023-11-21T13:36:05;4.53;;;2.53;;
29362;SDS011;16349;53.672;10.014;2023-11-21T13:38:34;2.80;;;2.60;;
29362;SDS011;16349;53.672;10.014;2023-11-21T13:41:02;3.00;;;2.60;;
29362;SDS011;16349;53.672;10.014;2023-11-21T13:43:32;3.67;;;2.70;;
29362;SDS011;16349;53.672;10.014;2023-11-21T13:45:59;4.13;;;2.60;;
29362;SDS011;16349;53.672;10.014;2023-11-21T13:48:31;3.00;;;2.43;;
29362;SDS011;16349;53.672;10.014;2023-11-21T13:51:08;3.80;;;2.60;;
29362;SDS011;16349;53.672;10.014;2023-11-21T13:53:42;2.93;;;2.40;;
29362;SDS011;16349;53.672;10.014;2023-11-21T13:56:10;3.73;;;2.80;;
29362;SDS011;16349;53.672;10.014;2023-11-21T13:58:41;2.83;;;2.40;;
29362;SDS011;16349;53.672;10.014;2023-11-21T14:01:12;2.80;;;2.50;;
29362;SDS011;16349;53.672;10.014;2023-11-21T14:03:57;3.00;;;2.80;;
29362;SDS011;16349;53.672;10.014;2023-11-21T14:06:34;4.13;;;2.97;;
29362;SDS011;16349;53.672;10.014;2023-11-21T14:09:13;3.37;;;3.07;;
29362;SDS011;16349;53.672;10.014;2023-11-21T14:11:47;3.70;;;2.30;;
29362;SDS011;16349;53.672;10.014;2023-11-21T14:14:18;4.70;;;2.63;;
29362;SDS011;16349;53.672;10.014;2023-11-21T14:16:45;3.87;;;2.60;;
29362;SDS011;16349;53.672;10.014;2023-11-21T14:19:12;4.27;;;3.10;;
29362;SDS011;16349;53.672;10.014;2023-11-21T14:21:43;3.77;;;2.43;;
29362;SDS011;16349;53.672;10.014;2023-11-21T14:24:14;4.37;;;2.30;;
29362;SDS011;16349;53.672;10.014;2023-11-21T14:26:43;2.27;;;2.07;;
29362;SDS011;16349;53.672;10.014;2023-11-21T14:29:11;2.90;;;2.23;;
29362;SDS011;16349;53.672;10.014;2023-11-21T14:31:39;3.67;;;1.90;;
29362;SDS011;16349;53.672;10.014;2023-11-21T14:34:07;4.17;;;2.30;;
29362;SDS011;16349;53.672;10.014;2023-11-21T14:36:34;3.10;;;2.50;;
29362;SDS011;16349;53.672;10.014;2023-11-21T14:39:03;2.50;;;2.03;;
29362;SDS011;16349;53.672;10.014;2023-11-21T14:41:32;3.17;;;2.00;;
29362;SDS011;16349;53.672;10.014;2023-11-21T14:44:00;2.63;;;1.90;;